createdAt,value
2016-12-15T00:00:08.513Z,79.55
2016-12-15T00:01:08.247Z,79.24
2016-12-15T00:02:09.872Z,79.34
2016-12-15T00:03:08.682Z,79.22
2016-12-15T00:04:08.517Z,80.43
2016-12-15T00:05:08.157Z,81.16
2016-12-15T00:06:07.817Z,81.49
2016-12-15T00:07:08.492Z,80.95
2016-12-15T00:08:08.194Z,80.84
2016-12-15T00:09:07.784Z,79.92
2016-12-15T00:10:08.526Z,80.32
2016-12-15T00:11:08.087Z,80.62
2016-12-15T00:13:11.024Z,80.40
2016-12-15T00:13:15.018Z,81.47
2016-12-15T00:14:07.950Z,81.57
2016-12-15T00:15:07.649Z,81.07
2016-12-15T00:16:38.913Z,80.54
2016-12-15T00:17:08.762Z,80.03
2016-12-15T00:18:08.674Z,80.27
2016-12-15T00:19:08.467Z,80.21
2016-12-15T00:20:08.521Z,81.51
2016-12-15T00:21:08.190Z,81.01
2016-12-15T00:22:07.874Z,80.87
2016-12-15T00:23:08.710Z,81.57
2016-12-15T00:24:08.421Z,81.39
2016-12-15T00:25:08.102Z,80.72
2016-12-15T00:26:07.660Z,81.35
2016-12-15T00:27:08.537Z,80.93
2016-12-15T00:28:08.361Z,80.81
2016-12-15T00:29:08.104Z,80.04
2016-12-15T00:30:07.863Z,80.38
2016-12-15T00:31:08.615Z,80.21
2016-12-15T00:32:08.434Z,80.63
2016-12-15T00:33:08.146Z,81.19
2016-12-15T00:34:07.781Z,81.05
2016-12-15T00:35:08.423Z,80.92
2016-12-15T00:36:08.431Z,80.83
2016-12-15T00:37:08.183Z,81.16
2016-12-15T00:38:07.867Z,81.58
2016-12-15T00:39:09.655Z,82.02
2016-12-15T00:40:07.574Z,82.18
2016-12-15T00:41:08.211Z,82.52
2016-12-15T00:42:08.683Z,82.39
2016-12-15T00:43:08.305Z,82.23
2016-12-15T00:44:07.888Z,82.52
2016-12-15T00:45:08.629Z,82.73
2016-12-15T00:46:08.200Z,82.80
2016-12-15T00:47:07.973Z,82.59
2016-12-15T00:48:07.642Z,82.50
2016-12-15T00:49:09.069Z,82.82
2016-12-15T00:50:07.712Z,82.39
2016-12-15T00:51:08.368Z,82.35
2016-12-15T00:52:07.842Z,82.76
2016-12-15T00:53:08.448Z,82.88
2016-12-15T00:54:08.093Z,82.82
2016-12-15T00:55:07.804Z,82.79
2016-12-15T00:56:08.507Z,83.05
2016-12-15T00:57:08.254Z,83.97
2016-12-15T00:58:07.932Z,84.13
2016-12-15T00:59:09.545Z,83.92
2016-12-15T01:00:08.252Z,83.70
2016-12-15T01:01:09.580Z,84.56
2016-12-15T01:02:08.259Z,84.53
2016-12-15T01:03:07.898Z,83.92
2016-12-15T01:04:08.487Z,84.15
2016-12-15T01:05:13.490Z,84.45
2016-12-15T01:06:08.266Z,84.68
2016-12-15T01:07:07.845Z,84.15
2016-12-15T01:08:09.245Z,84.47
2016-12-15T01:09:07.911Z,84.11
2016-12-15T01:10:08.513Z,83.68
2016-12-15T01:11:07.962Z,83.59
2016-12-15T01:12:09.052Z,84.14
2016-12-15T01:13:08.334Z,84.39
2016-12-15T01:14:07.821Z,84.13
2016-12-15T01:15:08.138Z,85.38
2016-12-15T01:16:07.891Z,85.78
2016-12-15T01:17:08.588Z,85.24
2016-12-15T01:18:08.470Z,85.80
2016-12-15T01:19:08.569Z,85.06
2016-12-15T01:20:08.556Z,84.62
2016-12-15T01:21:07.848Z,84.64
2016-12-15T01:22:08.662Z,84.42
2016-12-15T01:23:08.321Z,84.59
2016-12-15T01:24:08.014Z,85.84
2016-12-15T01:25:07.750Z,85.24
2016-12-15T01:26:08.510Z,86.50
2016-12-15T01:27:08.132Z,85.43
2016-12-15T01:28:08.561Z,84.67
2016-12-15T01:29:08.282Z,85.27
2016-12-15T01:30:08.101Z,84.90
2016-12-15T01:31:07.809Z,85.12
2016-12-15T01:32:08.634Z,84.72
2016-12-15T01:33:08.303Z,84.88
2016-12-15T01:34:07.960Z,84.81
2016-12-15T01:35:07.713Z,84.20
2016-12-15T01:36:08.377Z,84.39
2016-12-15T01:37:07.956Z,84.64
2016-12-15T01:38:07.525Z,84.55
2016-12-15T01:39:07.819Z,84.35
2016-12-15T01:40:08.396Z,84.47
2016-12-15T01:41:08.542Z,85.06
2016-12-15T01:42:08.229Z,84.23
2016-12-15T01:43:08.000Z,84.21
2016-12-15T01:44:07.667Z,84.56
2016-12-15T01:45:08.715Z,84.17
2016-12-15T01:46:08.384Z,83.81
2016-12-15T01:47:08.122Z,84.18
2016-12-15T01:48:07.801Z,84.84
2016-12-15T01:49:08.554Z,84.20
2016-12-15T01:50:08.306Z,84.19
2016-12-15T01:51:08.021Z,84.38
2016-12-15T01:52:07.779Z,84.62
2016-12-15T01:53:08.423Z,85.21
2016-12-15T01:54:08.159Z,84.91
2016-12-15T01:55:08.932Z,85.02
2016-12-15T01:56:07.878Z,85.09
2016-12-15T01:57:08.600Z,85.50
2016-12-15T01:58:08.259Z,85.71
2016-12-15T01:59:08.279Z,85.16
2016-12-15T02:00:07.916Z,84.62
2016-12-15T02:01:08.658Z,84.59
2016-12-15T02:02:08.076Z,84.46
2016-12-15T02:03:07.619Z,84.41
2016-12-15T02:04:08.194Z,84.33
2016-12-15T02:05:07.981Z,84.60
2016-12-15T02:06:07.687Z,85.10
2016-12-15T02:07:08.315Z,84.58
2016-12-15T02:08:08.154Z,84.10
2016-12-15T02:09:07.866Z,84.60
2016-12-15T02:10:08.540Z,84.72
2016-12-15T02:11:08.138Z,84.32
2016-12-15T02:12:07.819Z,84.72
2016-12-15T02:13:08.545Z,84.66
2016-12-15T02:14:07.928Z,85.22
2016-12-15T02:15:08.252Z,85.23
2016-12-15T02:16:07.986Z,84.86
2016-12-15T02:17:07.695Z,84.71
2016-12-15T02:18:08.613Z,84.39
2016-12-15T02:19:08.348Z,85.32
2016-12-15T02:20:07.939Z,84.61
2016-12-15T02:21:07.574Z,84.53
2016-12-15T02:22:08.291Z,84.31
2016-12-15T02:23:07.949Z,84.60
2016-12-15T02:24:07.540Z,85.27
2016-12-15T02:25:08.271Z,86.32
2016-12-15T02:26:07.891Z,85.79
2016-12-15T02:27:08.572Z,85.77
2016-12-15T02:28:08.252Z,85.95
2016-12-15T02:29:07.994Z,86.13
2016-12-15T02:30:07.596Z,87.36
2016-12-15T02:31:09.138Z,87.45
2016-12-15T02:32:07.939Z,86.57
2016-12-15T02:33:07.719Z,86.46
2016-12-15T02:34:08.469Z,86.03
2016-12-15T02:35:08.134Z,86.44
2016-12-15T02:36:07.664Z,86.18
2016-12-15T02:37:08.278Z,85.67
2016-12-15T02:38:07.922Z,85.61
2016-12-15T02:39:08.699Z,85.87
2016-12-15T02:40:08.397Z,85.43
2016-12-15T02:41:08.124Z,84.88
2016-12-15T02:42:07.768Z,84.74
2016-12-15T02:43:08.418Z,85.57
2016-12-15T02:44:08.009Z,86.01
2016-12-15T02:45:07.597Z,85.89
2016-12-15T02:46:08.264Z,87.16
2016-12-15T02:47:07.887Z,87.60
2016-12-15T02:48:09.385Z,87.15
2016-12-15T02:49:08.321Z,86.07
2016-12-15T02:50:07.996Z,84.85
2016-12-15T02:51:07.726Z,85.69
2016-12-15T02:52:08.476Z,86.42
2016-12-15T02:53:08.018Z,86.91
2016-12-15T02:54:07.800Z,86.67
2016-12-15T02:55:08.379Z,87.26
2016-12-15T02:56:08.131Z,87.03
2016-12-15T02:57:07.796Z,86.85
2016-12-15T02:58:08.499Z,86.15
2016-12-15T02:59:08.148Z,86.23
2016-12-15T03:00:07.856Z,86.32
2016-12-15T03:01:08.479Z,86.09
2016-12-15T03:02:07.858Z,86.41
2016-12-15T03:03:07.981Z,86.56
2016-12-15T03:04:07.623Z,86.19
2016-12-15T03:05:08.324Z,85.81
2016-12-15T03:06:07.971Z,85.62
2016-12-15T03:07:07.617Z,84.79
2016-12-15T03:08:08.377Z,85.82
2016-12-15T03:09:07.899Z,85.67
2016-12-15T03:10:07.561Z,85.48
2016-12-15T03:11:13.647Z,85.55
2016-12-15T03:12:08.364Z,85.49
2016-12-15T03:13:08.089Z,86.45
2016-12-15T03:14:07.804Z,86.67
2016-12-15T03:15:08.408Z,87.18
2016-12-15T03:16:08.179Z,86.27
2016-12-15T03:17:07.949Z,86.26
2016-12-15T03:18:07.611Z,86.33
2016-12-15T03:19:08.233Z,86.83
2016-12-15T03:20:08.010Z,86.54
2016-12-15T03:21:07.727Z,85.87
2016-12-15T03:22:08.366Z,85.82
2016-12-15T03:23:08.380Z,85.40
2016-12-15T03:24:08.189Z,86.43
2016-12-15T03:25:07.930Z,86.59
2016-12-15T03:26:08.600Z,86.81
2016-12-15T03:27:08.476Z,87.82
2016-12-15T03:28:08.171Z,88.04
2016-12-15T03:29:07.744Z,88.55
2016-12-15T03:30:08.590Z,89.21
2016-12-15T03:31:08.375Z,89.19
2016-12-15T03:32:07.779Z,89.12
2016-12-15T03:33:07.660Z,88.60
2016-12-15T03:34:08.503Z,87.57
2016-12-15T03:35:08.071Z,87.19
2016-12-15T03:36:07.696Z,86.87
2016-12-15T03:37:08.621Z,86.29
2016-12-15T03:38:08.288Z,86.94
2016-12-15T03:39:08.469Z,86.90
2016-12-15T03:40:08.599Z,87.46
2016-12-15T03:41:08.244Z,87.53
2016-12-15T03:42:08.065Z,87.18
2016-12-15T03:43:07.702Z,87.41
2016-12-15T03:44:08.461Z,87.23
2016-12-15T03:45:08.065Z,86.61
2016-12-15T03:46:07.700Z,86.94
2016-12-15T03:47:08.461Z,86.53
2016-12-15T03:48:08.197Z,87.50
2016-12-15T03:49:07.948Z,87.46
2016-12-15T03:50:07.633Z,87.29
2016-12-15T03:51:08.342Z,87.23
2016-12-15T03:52:08.817Z,86.79
2016-12-15T03:53:07.989Z,86.73
2016-12-15T03:54:07.719Z,86.75
2016-12-15T03:55:08.364Z,86.48
2016-12-15T03:56:07.838Z,86.92
2016-12-15T03:58:08.119Z,86.36
2016-12-15T03:59:07.951Z,86.14
2016-12-15T04:00:07.566Z,86.47
2016-12-15T04:01:08.238Z,87.00
2016-12-15T04:02:07.890Z,87.23
2016-12-15T04:03:08.525Z,87.10
2016-12-15T04:04:08.242Z,87.22
2016-12-15T04:05:07.870Z,89.40
2016-12-15T04:06:08.546Z,89.71
2016-12-15T04:07:08.258Z,89.36
2016-12-15T04:08:07.865Z,88.98
2016-12-15T04:09:08.641Z,88.28
2016-12-15T04:10:08.306Z,88.27
2016-12-15T04:11:08.817Z,87.92
2016-12-15T04:12:08.079Z,88.01
2016-12-15T04:13:07.762Z,87.74
2016-12-15T04:14:08.521Z,88.05
2016-12-15T04:15:09.253Z,88.19
2016-12-15T04:16:07.861Z,88.23
2016-12-15T04:17:08.579Z,89.16
2016-12-15T04:18:08.297Z,87.85
2016-12-15T04:19:07.922Z,87.75
2016-12-15T04:20:09.041Z,89.20
2016-12-15T04:21:07.615Z,88.43
2016-12-15T04:22:08.486Z,88.77
2016-12-15T04:23:08.135Z,88.61
2016-12-15T04:24:08.129Z,88.13
2016-12-15T04:25:07.801Z,88.37
2016-12-15T04:26:14.141Z,86.47
2016-12-15T04:27:07.878Z,85.71
2016-12-15T04:28:08.295Z,86.41
2016-12-15T04:29:08.498Z,86.98
2016-12-15T04:30:08.155Z,87.17
2016-12-15T04:31:07.786Z,86.94
2016-12-15T04:32:15.628Z,86.89
2016-12-15T04:33:08.388Z,87.19
2016-12-15T04:34:08.189Z,87.58
2016-12-15T04:35:07.940Z,88.03
2016-12-15T04:36:15.089Z,88.92
2016-12-15T04:37:07.673Z,87.28
2016-12-15T04:38:08.270Z,87.93
2016-12-15T04:39:08.032Z,88.33
2016-12-15T04:40:07.729Z,88.07
2016-12-15T04:41:08.481Z,88.22
2016-12-15T04:42:08.192Z,87.89
2016-12-15T04:43:08.040Z,87.23
2016-12-15T04:44:07.575Z,88.60
2016-12-15T04:45:08.317Z,89.19
2016-12-15T04:46:07.939Z,88.62
2016-12-15T04:47:07.706Z,89.44
2016-12-15T04:48:08.300Z,88.26
2016-12-15T04:49:07.983Z,88.66
2016-12-15T04:50:07.679Z,88.80
2016-12-15T04:51:08.356Z,89.42
2016-12-15T04:52:07.936Z,88.30
2016-12-15T04:53:07.531Z,88.98
2016-12-15T04:54:08.285Z,89.88
2016-12-15T04:55:07.972Z,89.32
2016-12-15T04:56:07.691Z,89.06
2016-12-15T04:57:08.491Z,88.68
2016-12-15T04:58:08.249Z,87.68
2016-12-15T04:59:07.748Z,87.47
2016-12-15T05:00:08.542Z,88.39
2016-12-15T05:01:08.201Z,88.21
2016-12-15T05:02:07.826Z,88.66
2016-12-15T05:03:08.462Z,87.94
2016-12-15T05:04:07.801Z,87.83
2016-12-15T05:05:08.581Z,88.46
2016-12-15T05:06:08.439Z,88.29
2016-12-15T05:07:08.248Z,88.88
2016-12-15T05:08:07.952Z,88.52
2016-12-15T05:09:07.391Z,88.01
2016-12-15T05:10:08.340Z,88.05
2016-12-15T05:11:08.020Z,88.37
2016-12-15T05:12:07.765Z,88.69
2016-12-15T05:13:08.422Z,89.28
2016-12-15T05:14:07.984Z,89.99
2016-12-15T05:15:07.496Z,89.28
2016-12-15T05:16:08.273Z,88.50
2016-12-15T05:17:07.923Z,89.26
2016-12-15T05:18:09.451Z,89.08
2016-12-15T05:19:08.460Z,89.56
2016-12-15T05:20:07.754Z,89.51
2016-12-15T05:21:08.361Z,90.34
2016-12-15T05:22:08.144Z,90.77
2016-12-15T05:23:07.808Z,90.74
2016-12-15T05:24:08.539Z,90.88
2016-12-15T05:25:11.043Z,90.70
2016-12-15T05:26:07.468Z,90.56
2016-12-15T05:27:08.021Z,89.67
2016-12-15T05:28:07.633Z,89.08
2016-12-15T05:29:08.352Z,89.67
2016-12-15T05:30:07.819Z,89.00
2016-12-15T05:31:08.423Z,90.05
2016-12-15T05:32:08.073Z,90.03
2016-12-15T05:33:07.763Z,90.27
2016-12-15T05:34:08.342Z,90.17
2016-12-15T05:35:08.052Z,90.33
2016-12-15T05:36:08.601Z,90.30
2016-12-15T05:37:08.013Z,90.32
2016-12-15T05:38:07.573Z,90.04
2016-12-15T05:39:08.250Z,90.42
2016-12-15T05:40:08.283Z,91.16
2016-12-15T05:41:08.166Z,92.00
2016-12-15T05:42:07.610Z,91.57
2016-12-15T05:43:08.411Z,91.84
2016-12-15T05:44:08.127Z,91.58
2016-12-15T05:45:07.771Z,91.59
2016-12-15T05:46:08.428Z,91.64
2016-12-15T05:47:08.078Z,91.93
2016-12-15T05:48:08.830Z,91.12
2016-12-15T05:49:07.972Z,92.37
2016-12-15T05:50:08.411Z,91.62
2016-12-15T05:51:07.983Z,91.44
2016-12-15T05:52:07.562Z,90.50
2016-12-15T05:53:08.379Z,91.48
2016-12-15T05:54:08.061Z,92.09
2016-12-15T05:55:07.574Z,91.85
2016-12-15T05:56:08.204Z,92.41
2016-12-15T05:57:07.789Z,92.83
2016-12-15T05:58:08.666Z,92.41
2016-12-15T05:59:08.362Z,92.65
2016-12-15T06:00:08.132Z,92.05
2016-12-15T06:01:07.705Z,91.86
2016-12-15T06:02:08.411Z,91.95
2016-12-15T06:03:08.684Z,92.04
2016-12-15T06:04:08.533Z,92.41
2016-12-15T06:05:08.179Z,92.76
2016-12-15T06:06:07.922Z,92.98
2016-12-15T06:07:08.619Z,92.58
2016-12-15T06:08:08.353Z,92.73
2016-12-15T06:09:08.137Z,93.20
2016-12-15T06:10:07.725Z,93.02
2016-12-15T06:11:08.471Z,92.55
2016-12-15T06:12:08.308Z,92.34
2016-12-15T06:13:08.123Z,91.91
2016-12-15T06:14:07.653Z,91.71
2016-12-15T06:15:08.336Z,91.93
2016-12-15T06:16:08.132Z,91.17
2016-12-15T06:17:07.905Z,91.98
2016-12-15T06:18:08.513Z,92.31
2016-12-15T06:19:08.226Z,92.87
2016-12-15T06:20:07.859Z,93.64
2016-12-15T06:21:08.522Z,93.57
2016-12-15T06:22:08.159Z,93.23
2016-12-15T06:23:07.946Z,92.85
2016-12-15T06:24:07.548Z,93.66
2016-12-15T06:25:08.328Z,92.63
2016-12-15T06:26:08.049Z,92.50
2016-12-15T06:27:07.640Z,92.95
2016-12-15T06:28:08.451Z,93.13
2016-12-15T06:29:08.265Z,92.83
2016-12-15T06:30:07.883Z,93.16
2016-12-15T06:31:08.686Z,93.35
2016-12-15T06:32:08.440Z,93.37
2016-12-15T06:33:08.067Z,94.02
2016-12-15T06:34:07.998Z,93.74
2016-12-15T06:35:07.739Z,93.93
2016-12-15T06:36:08.491Z,93.85
2016-12-15T06:37:08.285Z,93.09
2016-12-15T06:38:07.986Z,92.84
2016-12-15T06:39:07.547Z,92.20
2016-12-15T06:40:08.238Z,92.73
2016-12-15T06:41:07.950Z,92.12
2016-12-15T06:42:07.511Z,92.31
2016-12-15T06:43:08.163Z,91.06
2016-12-15T06:44:07.708Z,90.89
2016-12-15T06:45:08.477Z,91.42
2016-12-15T06:46:08.087Z,90.95
2016-12-15T06:47:07.794Z,90.18
2016-12-15T06:48:08.411Z,90.84
2016-12-15T06:49:08.219Z,90.94
2016-12-15T06:50:08.071Z,91.25
2016-12-15T06:51:07.867Z,92.62
2016-12-15T06:52:08.546Z,92.63
2016-12-15T06:53:08.231Z,93.19
2016-12-15T06:54:07.845Z,92.71
2016-12-15T06:55:08.587Z,92.61
2016-12-15T06:56:08.206Z,92.45
2016-12-15T06:57:07.893Z,92.34
2016-12-15T06:58:08.753Z,91.97
2016-12-15T06:59:09.213Z,92.49
2016-12-15T07:00:07.918Z,93.13
2016-12-15T07:01:08.658Z,93.92
2016-12-15T07:02:08.346Z,94.14
2016-12-15T07:03:07.997Z,93.53
2016-12-15T07:04:13.717Z,93.48
2016-12-15T07:05:08.444Z,93.47
2016-12-15T07:06:08.012Z,93.13
2016-12-15T07:07:07.558Z,92.40
2016-12-15T07:08:08.182Z,92.41
2016-12-15T07:09:07.766Z,92.81
2016-12-15T07:10:08.465Z,92.31
2016-12-15T07:11:08.190Z,92.06
2016-12-15T07:12:07.768Z,91.79
2016-12-15T07:13:08.502Z,92.25
2016-12-15T07:14:08.217Z,92.73
2016-12-15T07:15:07.869Z,92.96
2016-12-15T07:16:08.606Z,93.20
2016-12-15T07:17:08.488Z,93.34
2016-12-15T07:18:08.086Z,93.03
2016-12-15T07:19:07.734Z,93.46
2016-12-15T07:20:08.467Z,92.93
2016-12-15T07:21:08.184Z,92.00
2016-12-15T07:22:07.767Z,92.17
2016-12-15T07:23:08.419Z,92.23
2016-12-15T07:24:08.156Z,92.96
2016-12-15T07:25:07.763Z,92.24
2016-12-15T07:26:08.308Z,91.50
2016-12-15T07:27:07.896Z,92.73
2016-12-15T07:28:08.693Z,93.39
2016-12-15T07:29:08.458Z,92.65
2016-12-15T07:30:08.113Z,93.62
2016-12-15T07:31:07.647Z,93.95
2016-12-15T07:32:08.374Z,93.74
2016-12-15T07:33:07.983Z,92.96
2016-12-15T07:34:07.706Z,92.87
2016-12-15T07:35:08.478Z,92.91
2016-12-15T07:36:08.224Z,92.29
2016-12-15T07:37:07.867Z,92.80
2016-12-15T07:38:08.526Z,93.57
2016-12-15T07:39:08.058Z,93.85
2016-12-15T07:40:07.625Z,93.27
2016-12-15T07:41:08.281Z,92.72
2016-12-15T07:42:07.885Z,92.62
2016-12-15T07:43:08.583Z,92.84
2016-12-15T07:44:08.147Z,93.56
2016-12-15T07:45:07.757Z,94.14
2016-12-15T07:46:08.570Z,94.79
2016-12-15T07:47:08.129Z,94.14
2016-12-15T07:48:07.666Z,93.78
2016-12-15T07:49:08.344Z,93.60
2016-12-15T07:50:08.039Z,94.48
2016-12-15T07:51:07.576Z,94.64
2016-12-15T07:52:08.284Z,94.67
2016-12-15T07:53:07.911Z,94.81
2016-12-15T07:54:08.524Z,95.87
2016-12-15T07:55:08.342Z,96.36
2016-12-15T07:56:07.935Z,95.50
2016-12-15T07:57:07.495Z,94.72
2016-12-15T07:58:08.203Z,94.32
2016-12-15T07:59:07.806Z,94.48
2016-12-15T08:00:08.562Z,94.36
2016-12-15T08:01:08.292Z,93.90
2016-12-15T08:02:07.906Z,93.60
2016-12-15T08:03:08.669Z,94.49
2016-12-15T08:04:08.337Z,94.52
2016-12-15T08:05:08.048Z,94.35
2016-12-15T08:06:07.826Z,95.10
2016-12-15T08:07:09.713Z,93.99
2016-12-15T08:08:07.565Z,93.78
2016-12-15T08:09:08.127Z,94.81
2016-12-15T08:10:07.781Z,94.75
2016-12-15T08:11:08.393Z,95.17
2016-12-15T08:12:08.113Z,95.64
2016-12-15T08:13:07.757Z,95.89
2016-12-15T08:14:08.613Z,96.19
2016-12-15T08:15:08.182Z,95.32
2016-12-15T08:16:07.755Z,95.66
2016-12-15T08:17:08.662Z,95.50
2016-12-15T08:18:08.403Z,95.33
2016-12-15T08:19:07.948Z,95.30
2016-12-15T08:20:07.542Z,96.51
2016-12-15T08:21:09.290Z,96.69
2016-12-15T08:22:07.833Z,96.50
2016-12-15T08:23:08.524Z,96.24
2016-12-15T08:24:08.071Z,95.41
2016-12-15T08:25:07.657Z,94.82
2016-12-15T08:26:08.480Z,94.63
2016-12-15T08:27:08.295Z,94.55
2016-12-15T08:28:07.939Z,94.72
2016-12-15T08:29:07.539Z,94.47
2016-12-15T08:30:08.171Z,93.68
2016-12-15T08:31:07.745Z,93.43
2016-12-15T08:32:09.321Z,93.12
2016-12-15T08:33:07.547Z,93.05
2016-12-15T08:34:08.168Z,93.54
2016-12-15T08:35:07.695Z,92.86
2016-12-15T08:36:08.317Z,93.95
2016-12-15T08:37:07.925Z,92.87
2016-12-15T08:38:08.648Z,94.02
2016-12-15T08:39:08.287Z,93.86
2016-12-15T08:40:07.916Z,93.36
2016-12-15T08:41:08.558Z,93.03
2016-12-15T08:42:08.292Z,93.30
2016-12-15T08:43:07.789Z,92.97
2016-12-15T08:44:08.623Z,93.06
2016-12-15T08:45:08.240Z,92.90
2016-12-15T08:46:07.779Z,92.92
2016-12-15T08:47:13.960Z,92.25
2016-12-15T08:48:07.619Z,92.04
2016-12-15T08:49:08.279Z,93.46
2016-12-15T08:50:07.789Z,93.97
2016-12-15T08:51:08.494Z,94.81
2016-12-15T08:52:08.395Z,94.54
2016-12-15T08:53:08.099Z,95.14
2016-12-15T08:54:07.732Z,94.40
2016-12-15T08:55:08.466Z,94.29
2016-12-15T08:56:08.332Z,92.69
2016-12-15T08:57:08.083Z,93.23
2016-12-15T08:58:07.818Z,93.11
2016-12-15T08:59:08.542Z,93.13
2016-12-15T09:00:08.341Z,93.24
2016-12-15T09:01:07.981Z,93.77
2016-12-15T09:02:07.610Z,93.34
2016-12-15T09:03:08.452Z,93.85
2016-12-15T09:04:08.081Z,93.16
2016-12-15T09:05:08.941Z,93.17
2016-12-15T09:06:07.727Z,93.07
2016-12-15T09:07:08.537Z,92.60
2016-12-15T09:08:08.456Z,93.98
2016-12-15T09:09:08.311Z,93.09
2016-12-15T09:10:08.068Z,92.98
2016-12-15T09:11:07.723Z,94.33
2016-12-15T09:12:08.508Z,93.85
2016-12-15T09:13:08.317Z,94.38
2016-12-15T09:14:08.066Z,94.53
2016-12-15T09:15:07.755Z,94.52
2016-12-15T09:16:08.633Z,93.66
2016-12-15T09:17:08.501Z,93.56
2016-12-15T09:18:08.212Z,93.04
2016-12-15T09:19:07.862Z,93.39
2016-12-15T09:20:08.602Z,93.20
2016-12-15T09:21:08.400Z,93.13
2016-12-15T09:22:08.138Z,94.30
2016-12-15T09:23:08.033Z,92.78
2016-12-15T09:24:07.693Z,92.95
2016-12-15T09:25:08.421Z,92.48
2016-12-15T09:26:09.247Z,93.43
2016-12-15T09:27:07.842Z,93.49
2016-12-15T09:28:08.545Z,93.41
2016-12-15T09:29:08.276Z,92.77
2016-12-15T09:30:07.872Z,93.27
2016-12-15T09:31:09.261Z,93.06
2016-12-15T09:32:08.374Z,93.90
2016-12-15T09:33:08.010Z,93.72
2016-12-15T09:34:07.524Z,94.13
2016-12-15T09:35:08.134Z,94.13
2016-12-15T09:36:07.718Z,93.21
2016-12-15T09:37:08.286Z,93.04
2016-12-15T09:38:07.777Z,93.47
2016-12-15T09:39:08.382Z,92.91
2016-12-15T09:40:08.033Z,92.99
2016-12-15T09:41:07.568Z,92.39
2016-12-15T09:42:08.264Z,92.46
2016-12-15T09:43:07.842Z,92.47
2016-12-15T09:44:08.474Z,92.22
2016-12-15T09:45:08.133Z,93.01
2016-12-15T09:46:41.683Z,92.05
2016-12-15T09:47:08.332Z,91.44
2016-12-15T09:48:07.974Z,91.84
2016-12-15T09:49:07.552Z,92.44
2016-12-15T09:50:08.134Z,92.25
2016-12-15T09:51:07.734Z,91.47
2016-12-15T09:52:08.379Z,90.84
2016-12-15T09:53:09.158Z,91.48
2016-12-15T09:54:07.715Z,91.99
2016-12-15T09:55:08.251Z,92.20
2016-12-15T09:56:07.810Z,92.62
2016-12-15T09:57:08.403Z,92.55
2016-12-15T09:58:07.955Z,92.46
2016-12-15T09:59:07.603Z,91.75
2016-12-15T10:00:08.171Z,92.76
2016-12-15T10:01:07.704Z,92.43
2016-12-15T10:02:08.349Z,92.66
2016-12-15T10:03:07.956Z,91.73
2016-12-15T10:04:07.736Z,91.69
2016-12-15T10:05:08.521Z,91.23
2016-12-15T10:06:08.138Z,91.54
2016-12-15T10:07:07.718Z,91.61
2016-12-15T10:08:08.274Z,91.11
2016-12-15T10:09:08.883Z,91.58
2016-12-15T10:10:07.767Z,91.38
2016-12-15T10:11:08.336Z,91.50
2016-12-15T10:12:07.900Z,91.53
2016-12-15T10:13:08.684Z,91.63
2016-12-15T10:14:08.383Z,92.57
2016-12-15T10:15:07.911Z,92.13
2016-12-15T10:16:08.621Z,91.16
2016-12-15T10:17:08.287Z,91.18
2016-12-15T10:18:07.898Z,90.90
2016-12-15T10:19:08.561Z,91.42
2016-12-15T10:20:08.191Z,90.66
2016-12-15T10:21:07.782Z,91.50
2016-12-15T10:22:08.401Z,91.48
2016-12-15T10:23:08.986Z,91.63
2016-12-15T10:24:08.039Z,91.18
2016-12-15T10:25:07.532Z,91.08
2016-12-15T10:26:08.041Z,90.31
2016-12-15T10:27:07.934Z,90.61
2016-12-15T10:28:08.524Z,89.63
2016-12-15T10:29:08.203Z,90.07
2016-12-15T10:30:07.742Z,90.19
2016-12-15T10:31:08.351Z,89.88
2016-12-15T10:32:41.067Z,90.10
2016-12-15T10:33:07.663Z,91.22
2016-12-15T10:34:08.476Z,91.56
2016-12-15T10:35:08.065Z,91.06
2016-12-15T10:36:07.624Z,91.28
2016-12-15T10:37:08.212Z,90.27
2016-12-15T10:38:07.778Z,90.22
2016-12-15T10:39:08.329Z,89.60
2016-12-15T10:40:08.061Z,89.81
2016-12-15T10:41:07.557Z,90.20
2016-12-15T10:42:08.351Z,89.97
2016-12-15T10:43:07.959Z,91.06
2016-12-15T10:44:07.540Z,91.05
2016-12-15T10:45:08.182Z,91.30
2016-12-15T10:46:07.761Z,91.06
2016-12-15T10:47:08.324Z,91.97
2016-12-15T10:48:07.926Z,91.63
2016-12-15T10:49:08.725Z,90.83
2016-12-15T10:50:08.521Z,91.35
2016-12-15T10:51:08.218Z,90.51
2016-12-15T10:52:07.786Z,90.11
2016-12-15T10:53:08.369Z,90.27
2016-12-15T10:54:07.874Z,91.08
2016-12-15T10:55:08.491Z,91.12
2016-12-15T10:56:08.048Z,91.27
2016-12-15T10:57:08.661Z,91.10
2016-12-15T10:58:07.730Z,91.61
2016-12-15T10:59:08.452Z,91.60
2016-12-15T11:00:08.274Z,91.63
2016-12-15T11:01:07.896Z,92.02
2016-12-15T11:02:08.681Z,91.73
2016-12-15T11:03:08.376Z,91.14
2016-12-15T11:04:08.135Z,91.59
2016-12-15T11:05:07.641Z,91.51
2016-12-15T11:06:08.308Z,91.65
2016-12-15T11:07:07.914Z,90.92
2016-12-15T11:08:08.540Z,90.65
2016-12-15T11:09:08.170Z,90.46
2016-12-15T11:10:07.723Z,90.81
2016-12-15T11:11:08.284Z,90.09
2016-12-15T11:12:07.987Z,90.44
2016-12-15T11:13:07.502Z,90.19
2016-12-15T11:14:08.198Z,90.73
2016-12-15T11:15:07.805Z,89.91
2016-12-15T11:16:08.419Z,89.89
2016-12-15T11:17:08.168Z,88.73
2016-12-15T11:18:07.744Z,89.02
2016-12-15T11:19:08.506Z,89.04
2016-12-15T11:20:08.160Z,89.27
2016-12-15T11:21:07.590Z,89.33
2016-12-15T11:22:07.938Z,89.50
2016-12-15T11:23:08.508Z,89.69
2016-12-15T11:24:07.921Z,90.19
2016-12-15T11:25:08.578Z,89.49
2016-12-15T11:26:08.207Z,89.21
2016-12-15T11:27:07.806Z,89.38
2016-12-15T11:28:08.759Z,88.91
2016-12-15T11:29:08.582Z,89.40
2016-12-15T11:30:08.301Z,89.16
2016-12-15T11:31:07.947Z,88.91
2016-12-15T11:32:07.543Z,88.89
2016-12-15T11:33:08.172Z,89.42
2016-12-15T11:34:07.723Z,89.16
2016-12-15T11:35:08.284Z,89.40
2016-12-15T11:36:08.012Z,89.50
2016-12-15T11:37:07.776Z,89.67
2016-12-15T11:38:08.433Z,90.15
2016-12-15T11:39:09.312Z,90.00
2016-12-15T11:40:07.949Z,90.19
2016-12-15T11:41:07.473Z,90.33
2016-12-15T11:42:08.080Z,90.77
2016-12-15T11:43:07.703Z,90.05
2016-12-15T11:44:08.345Z,89.62
2016-12-15T11:45:07.911Z,89.21
2016-12-15T11:46:08.531Z,88.67
2016-12-15T11:47:08.104Z,89.26
2016-12-15T11:48:07.674Z,90.07
2016-12-15T11:49:08.334Z,90.21
2016-12-15T11:50:07.894Z,89.70
2016-12-15T11:51:08.771Z,89.26
2016-12-15T11:52:08.447Z,88.94
2016-12-15T11:53:08.047Z,89.50
2016-12-15T11:54:07.610Z,89.68
2016-12-15T11:55:08.305Z,90.16
2016-12-15T11:56:07.875Z,89.63
2016-12-15T11:57:08.482Z,89.97
2016-12-15T11:58:08.477Z,89.47
2016-12-15T11:59:08.084Z,88.52
2016-12-15T12:00:08.911Z,88.52
2016-12-15T12:01:08.352Z,89.12
2016-12-15T12:02:07.939Z,88.98
2016-12-15T12:03:07.503Z,88.62
2016-12-15T12:04:08.104Z,88.49
2016-12-15T12:05:07.695Z,88.44
2016-12-15T12:06:08.310Z,88.62
2016-12-15T12:07:07.873Z,87.96
2016-12-15T12:08:08.853Z,88.29
2016-12-15T12:09:08.414Z,89.03
2016-12-15T12:10:07.860Z,90.10
2016-12-15T12:11:07.756Z,90.18
2016-12-15T12:12:08.389Z,90.21
2016-12-15T12:13:07.992Z,89.60
2016-12-15T12:14:07.561Z,89.30
2016-12-15T12:15:08.171Z,89.22
2016-12-15T12:16:07.656Z,89.54
2016-12-15T12:17:08.318Z,88.48
2016-12-15T12:18:07.879Z,89.08
2016-12-15T12:19:08.479Z,88.36
2016-12-15T12:20:08.014Z,88.32
2016-12-15T12:21:07.439Z,88.63
2016-12-15T12:22:07.999Z,88.39
2016-12-15T12:23:07.460Z,88.93
2016-12-15T12:24:08.217Z,88.71
2016-12-15T12:25:07.787Z,88.75
2016-12-15T12:26:08.478Z,89.62
2016-12-15T12:27:08.062Z,89.08
2016-12-15T12:28:07.710Z,88.79
2016-12-15T12:29:08.352Z,88.86
2016-12-15T12:30:07.970Z,88.51
2016-12-15T12:31:07.516Z,88.48
2016-12-15T12:32:08.146Z,88.38
2016-12-15T12:33:07.708Z,87.99
2016-12-15T12:34:08.409Z,88.11
2016-12-15T12:35:08.883Z,87.62
2016-12-15T12:36:08.729Z,86.76
2016-12-15T12:37:08.354Z,86.67
2016-12-15T12:38:09.130Z,87.06
2016-12-15T12:39:07.726Z,86.87
2016-12-15T12:40:08.327Z,86.32
2016-12-15T12:41:07.868Z,86.41
2016-12-15T12:42:08.594Z,86.34
2016-12-15T12:43:08.223Z,85.85
2016-12-15T12:44:07.780Z,86.18
2016-12-15T12:45:08.416Z,86.51
2016-12-15T12:46:07.957Z,86.39
2016-12-15T12:47:07.584Z,87.52
2016-12-15T12:48:08.220Z,86.58
2016-12-15T12:49:07.812Z,86.32
2016-12-15T12:50:08.375Z,87.16
2016-12-15T12:51:07.940Z,87.32
2016-12-15T12:52:07.512Z,87.26
2016-12-15T12:53:08.029Z,86.95